sensor_id;sensor_type;location;lat;lon;timestamp;pressure;altitude;pressure_sealevel;temperature;humidity
15634;BME280;14654;48.898;8.308;2022-09-01T00:01:34;100439.44;;;16.57;100.00
15634;BME280;14654;48.898;8.308;2022-09-01T00:03:59;100442.88;;;16.58;100.00
15634;BME280;14654;48.898;8.308;2022-09-01T00:06:29;100439.50;;;16.56;100.00
15634;BME280;14654;48.898;8.308;2022-09-01T00:08:56;100439.50;;;16.56;100.00
15634;BME280;14654;48.898;8.308;2022-09-01T00:11:23;100446.41;;;16.57;100.00
15634;BME280;14654;48.898;8.308;2022-09-01T00:13:50;100450.78;;;16.56;100.00
15634;BME280;14654;48.898;8.308;2022-09-01T00:16:17;100442.09;;;16.56;100.00
15634;BME280;14654;48.898;8.308;2022-09-01T00:18:46;100436.88;;;16.56;100.00
15634;BME280;14654;48.898;8.308;2022-09-01T00:21:15;100435.25;;;16.52;100.00
15634;BME280;14654;48.898;8.308;2022-09-01T00:23:40;100445.06;;;16.43;100.00
15634;BME280;14654;48.898;8.308;2022-09-01T00:26:06;100442.69;;;16.36;100.00
15634;BME280;14654;48.898;8.308;2022-09-01T00:28:32;100440.31;;;16.28;100.00
15634;BME280;14654;48.898;8.308;2022-09-01T00:30:58;100444.88;;;16.21;100.00
15634;BME280;14654;48.898;8.308;2022-09-01T00:33:23;100442.50;;;16.13;100.00
15634;BME280;14654;48.898;8.308;2022-09-01T00:35:49;100441.81;;;16.07;100.00
15634;BME280;14654;48.898;8.308;2022-09-01T00:38:14;100441.13;;;16.02;100.00
15634;BME280;14654;48.898;8.308;2022-09-01T00:40:39;100439.50;;;15.96;100.00
15634;BME280;14654;48.898;8.308;2022-09-01T00:43:13;100435.31;;;15.92;100.00
15634;BME280;14654;48.898;8.308;2022-09-01T00:45:39;100436.22;;;15.89;100.00
15634;BME280;14654;48.898;8.308;2022-09-01T00:48:06;100437.25;;;15.85;100.00
15634;BME280;14654;48.898;8.308;2022-09-01T00:50:31;100436.34;;;15.84;100.00
15634;BME280;14654;48.898;8.308;2022-09-01T00:52:56;100436.41;;;15.83;100.00
15634;BME280;14654;48.898;8.308;2022-09-01T00:55:29;100436.47;;;15.80;100.00
15634;BME280;14654;48.898;8.308;2022-09-01T00:57:58;100436.56;;;15.77;100.00
15634;BME280;14654;48.898;8.308;2022-09-01T01:00:27;100432.22;;;15.76;100.00
15634;BME280;14654;48.898;8.308;2022-09-01T01:02:53;100435.78;;;15.73;100.00
15634;BME280;14654;48.898;8.308;2022-09-01T01:05:21;100429.75;;;15.71;100.00
15634;BME280;14654;48.898;8.308;2022-09-01T01:07:48;100427.19;;;15.69;100.00
15634;BME280;14654;48.898;8.308;2022-09-01T01:10:17;100420.34;;;15.65;100.00
15634;BME280;14654;48.898;8.308;2022-09-01T01:12:44;100420.41;;;15.64;100.00
15634;BME280;14654;48.898;8.308;2022-09-01T01:15:13;100422.22;;;15.60;100.00
15634;BME280;14654;48.898;8.308;2022-09-01T01:17:39;100418.84;;;15.57;100.00
15634;BME280;14654;48.898;8.308;2022-09-01T01:20:06;100423.22;;;15.56;100.00
15634;BME280;14654;48.898;8.308;2022-09-01T01:25:43;100422.34;;;15.55;100.00
15634;BME280;14654;48.898;8.308;2022-09-01T01:28:19;100420.56;;;15.58;100.00
15634;BME280;14654;48.898;8.308;2022-09-01T01:30:51;100426.69;;;15.57;100.00
15634;BME280;14654;48.898;8.308;2022-09-01T01:33:23;100421.53;;;15.53;100.00
15634;BME280;14654;48.898;8.308;2022-09-01T01:35:50;100421.53;;;15.53;100.00
15634;BME280;14654;48.898;8.308;2022-09-01T01:38:17;100427.63;;;15.54;100.00
15634;BME280;14654;48.898;8.308;2022-09-01T01:40:47;100426.81;;;15.52;100.00
15634;BME280;14654;48.898;8.308;2022-09-01T01:43:12;100423.31;;;15.51;100.00
15634;BME280;14654;48.898;8.308;2022-09-01T01:45:52;100415.63;;;15.48;100.00
15634;BME280;14654;48.898;8.308;2022-09-01T01:48:20;100415.69;;;15.45;100.00
15634;BME280;14654;48.898;8.308;2022-09-01T01:50:49;100417.47;;;15.43;100.00
15634;BME280;14654;48.898;8.308;2022-09-01T01:53:14;100426.16;;;15.44;100.00
15634;BME280;14654;48.898;8.308;2022-09-01T01:55:44;100421.84;;;15.43;100.00
15634;BME280;14654;48.898;8.308;2022-09-01T01:58:12;100427.06;;;15.43;100.00
15634;BME280;14654;48.898;8.308;2022-09-01T02:00:39;100424.47;;;15.43;100.00
15634;BME280;14654;48.898;8.308;2022-09-01T02:03:06;100418.44;;;15.41;100.00
15634;BME280;14654;48.898;8.308;2022-09-01T02:05:34;100432.31;;;15.41;100.00
15634;BME280;14654;48.898;8.308;2022-09-01T02:08:06;100429.78;;;15.38;100.00
15634;BME280;14654;48.898;8.308;2022-09-01T02:10:36;100421.94;;;15.38;100.00
15634;BME280;14654;48.898;8.308;2022-09-01T02:13:04;100431.63;;;15.34;100.00
15634;BME280;14654;48.898;8.308;2022-09-01T02:15:34;100428.16;;;15.34;100.00
15634;BME280;14654;48.898;8.308;2022-09-01T02:18:03;100423.72;;;15.37;100.00
15634;BME280;14654;48.898;8.308;2022-09-01T02:20:29;100416.91;;;15.32;100.00
15634;BME280;14654;48.898;8.308;2022-09-01T02:22:57;100417.84;;;15.29;100.00
15634;BME280;14654;48.898;8.308;2022-09-01T02:25:35;100417.88;;;15.28;100.00
15634;BME280;14654;48.898;8.308;2022-09-01T02:28:01;100412.75;;;15.24;100.00
15634;BME280;14654;48.898;8.308;2022-09-01T02:30:28;100423.22;;;15.23;100.00
15634;BME280;14654;48.898;8.308;2022-09-01T02:32:57;100409.44;;;15.19;100.00
15634;BME280;14654;48.898;8.308;2022-09-01T02:35:23;100416.44;;;15.16;100.00
15634;BME280;14654;48.898;8.308;2022-09-01T02:37:53;100416.50;;;15.14;100.00
15634;BME280;14654;48.898;8.308;2022-09-01T02:40:20;100419.06;;;15.16;100.00
15634;BME280;14654;48.898;8.308;2022-09-01T02:42:45;100405.31;;;15.11;100.00
15634;BME280;14654;48.898;8.308;2022-09-01T02:45:12;100414.03;;;15.09;100.00
15634;BME280;14654;48.898;8.308;2022-09-01T02:47:39;100412.31;;;15.07;100.00
15634;BME280;14654;48.898;8.308;2022-09-01T02:50:06;100410.66;;;15.04;100.00
15634;BME280;14654;48.898;8.308;2022-09-01T02:52:38;100413.22;;;15.06;100.00
15634;BME280;14654;48.898;8.308;2022-09-01T02:55:05;100412.44;;;15.04;100.00
15634;BME280;14654;48.898;8.308;2022-09-01T02:57:31;100399.50;;;14.99;100.00
15634;BME280;14654;48.898;8.308;2022-09-01T02:59:59;100412.53;;;14.99;100.00
15634;BME280;14654;48.898;8.308;2022-09-01T03:02:24;100401.31;;;14.96;100.00
15634;BME280;14654;48.898;8.308;2022-09-01T03:04:53;100410.09;;;14.91;100.00
15634;BME280;14654;48.898;8.308;2022-09-01T03:07:20;100401.53;;;14.88;100.00
15634;BME280;14654;48.898;8.308;2022-09-01T03:09:49;100408.44;;;14.89;100.00
15634;BME280;14654;48.898;8.308;2022-09-01T03:12:16;100398.09;;;14.86;100.00
15634;BME280;14654;48.898;8.308;2022-09-01T03:14:42;100405.97;;;14.84;100.00
15634;BME280;14654;48.898;8.308;2022-09-01T03:17:07;100406.84;;;14.83;100.00
15634;BME280;14654;48.898;8.308;2022-09-01T03:19:32;100408.72;;;14.78;100.00
15634;BME280;14654;48.898;8.308;2022-09-01T03:22:04;100403.56;;;14.75;100.00
15634;BME280;14654;48.898;8.308;2022-09-01T03:24:30;100405.38;;;14.73;100.00
15634;BME280;14654;48.898;8.308;2022-09-01T03:26:56;100408.06;;;14.68;100.00
15634;BME280;14654;48.898;8.308;2022-09-01T03:29:21;100408.16;;;14.63;100.00
15634;BME280;14654;48.898;8.308;2022-09-01T03:31:47;100414.25;;;14.62;100.00
15634;BME280;14654;48.898;8.308;2022-09-01T03:34:13;100417.78;;;14.60;100.00
15634;BME280;14654;48.898;8.308;2022-09-01T03:36:40;100423.06;;;14.58;100.00
15634;BME280;14654;48.898;8.308;2022-09-01T03:39:14;100428.28;;;14.57;100.00
15634;BME280;14654;48.898;8.308;2022-09-01T03:41:40;100428.22;;;14.60;100.00
15634;BME280;14654;48.898;8.308;2022-09-01T03:44:06;100420.47;;;14.57;100.00
15634;BME280;14654;48.898;8.308;2022-09-01T03:46:31;100419.56;;;14.58;100.00
15634;BME280;14654;48.898;8.308;2022-09-01T03:48:57;100429.16;;;14.56;100.00
15634;BME280;14654;48.898;8.308;2022-09-01T03:51:25;100423.22;;;14.51;100.00
15634;BME280;14654;48.898;8.308;2022-09-01T03:53:53;100423.28;;;14.47;100.00
15634;BME280;14654;48.898;8.308;2022-09-01T03:56:19;100418.97;;;14.46;100.00
15634;BME280;14654;48.898;8.308;2022-09-01T03:58:46;100421.59;;;14.45;100.00
15634;BME280;14654;48.898;8.308;2022-09-01T04:01:12;100422.53;;;14.44;100.00
15634;BME280;14654;48.898;8.308;2022-09-01T04:03:38;100415.53;;;14.44;100.00
15634;BME280;14654;48.898;8.308;2022-09-01T04:06:07;100413.78;;;14.45;100.00
15634;BME280;14654;48.898;8.308;2022-09-01T04:08:33;100419.03;;;14.43;100.00
15634;BME280;14654;48.898;8.308;2022-09-01T04:11:02;100420.81;;;14.43;100.00
15634;BME280;14654;48.898;8.308;2022-09-01T04:13:36;100411.28;;;14.40;100.00
15634;BME280;14654;48.898;8.308;2022-09-01T04:16:03;100414.78;;;14.41;100.00
15634;BME280;14654;48.898;8.308;2022-09-01T04:18:48;100411.34;;;14.39;100.00
15634;BME280;14654;48.898;8.308;2022-09-01T04:21:15;100408.75;;;14.37;100.00
15634;BME280;14654;48.898;8.308;2022-09-01T04:23:42;100413.16;;;14.35;100.00
15634;BME280;14654;48.898;8.308;2022-09-01T04:26:11;100411.41;;;14.36;100.00
15634;BME280;14654;48.898;8.308;2022-09-01T04:28:48;100415.78;;;14.35;100.00
15634;BME280;14654;48.898;8.308;2022-09-01T04:31:20;100413.16;;;14.35;100.00
15634;BME280;14654;48.898;8.308;2022-09-01T04:33:48;100419.09;;;14.40;100.00
15634;BME280;14654;48.898;8.308;2022-09-01T04:36:29;100415.66;;;14.40;100.00
15634;BME280;14654;48.898;8.308;2022-09-01T04:38:59;100416.53;;;14.39;100.00
15634;BME280;14654;48.898;8.308;2022-09-01T04:41:28;100416.56;;;14.37;100.00
15634;BME280;14654;48.898;8.308;2022-09-01T04:43:58;100411.41;;;14.36;100.00
15634;BME280;14654;48.898;8.308;2022-09-01T04:46:26;100414.91;;;14.35;100.00
15634;BME280;14654;48.898;8.308;2022-09-01T04:48:55;100419.28;;;14.32;100.00
15634;BME280;14654;48.898;8.308;2022-09-01T04:51:22;100414.13;;;14.31;100.00
15634;BME280;14654;48.898;8.308;2022-09-01T04:53:53;100417.56;;;14.31;100.00
15634;BME280;14654;48.898;8.308;2022-09-01T04:56:19;100420.16;;;14.31;100.00
15634;BME280;14654;48.898;8.308;2022-09-01T04:58:48;100421.03;;;14.32;100.00
15634;BME280;14654;48.898;8.308;2022-09-01T05:01:23;100414.88;;;14.36;100.00
15634;BME280;14654;48.898;8.308;2022-09-01T05:03:49;100415.72;;;14.37;100.00
15634;BME280;14654;48.898;8.308;2022-09-01T05:06:22;100421.69;;;14.42;100.00
15634;BME280;14654;48.898;8.308;2022-09-01T05:08:47;100420.81;;;14.41;100.00
15634;BME280;14654;48.898;8.308;2022-09-01T05:11:14;100413.78;;;14.46;100.00
15634;BME280;14654;48.898;8.308;2022-09-01T05:13:44;100427.63;;;14.48;100.00
15634;BME280;14654;48.898;8.308;2022-09-01T05:16:12;100419.69;;;14.53;100.00
15634;BME280;14654;48.898;8.308;2022-09-01T05:18:41;100417.03;;;14.56;100.00
15634;BME280;14654;48.898;8.308;2022-09-01T05:21:12;100411.75;;;14.59;100.00
15634;BME280;14654;48.898;8.308;2022-09-01T05:23:41;100419.44;;;14.64;100.00
15634;BME280;14654;48.898;8.308;2022-09-01T05:26:33;100416.69;;;14.72;100.00
15634;BME280;14654;48.898;8.308;2022-09-01T05:29:04;100415.69;;;14.77;100.00
15634;BME280;14654;48.898;8.308;2022-09-01T05:31:35;100415.50;;;14.85;100.00
15634;BME280;14654;48.898;8.308;2022-09-01T05:34:02;100415.31;;;14.93;100.00
15634;BME280;14654;48.898;8.308;2022-09-01T05:36:28;100424.56;;;15.05;100.00
15634;BME280;14654;48.898;8.308;2022-09-01T05:38:58;100415.44;;;15.21;100.00
15634;BME280;14654;48.898;8.308;2022-09-01T05:41:25;100424.69;;;15.33;100.00
15634;BME280;14654;48.898;8.308;2022-09-01T05:43:50;100433.13;;;15.43;100.00
15634;BME280;14654;48.898;8.308;2022-09-01T05:46:23;100431.13;;;15.53;100.00
15634;BME280;14654;48.898;8.308;2022-09-01T05:48:51;100429.34;;;15.55;100.00
15634;BME280;14654;48.898;8.308;2022-09-01T05:51:22;100429.75;;;15.71;100.00
15634;BME280;14654;48.898;8.308;2022-09-01T05:53:54;100424.19;;;15.83;100.00
15634;BME280;14654;48.898;8.308;2022-09-01T05:56:24;100427.41;;;15.95;100.00
15634;BME280;14654;48.898;8.308;2022-09-01T05:58:50;100415.03;;;16.00;100.00
15634;BME280;14654;48.898;8.308;2022-09-01T06:01:20;100411.66;;;16.26;100.00
15634;BME280;14654;48.898;8.308;2022-09-01T06:03:50;100419.34;;;16.31;100.00
15634;BME280;14654;48.898;8.308;2022-09-01T06:06:20;100409.78;;;16.30;100.00
15634;BME280;14654;48.898;8.308;2022-09-01T06:08:48;100413.16;;;16.34;100.00
15634;BME280;14654;48.898;8.308;2022-09-01T06:11:14;100419.03;;;16.42;100.00
15634;BME280;14654;48.898;8.308;2022-09-01T06:13:40;100417.78;;;16.54;100.00
15634;BME280;14654;48.898;8.308;2022-09-01T06:16:07;100415.31;;;17.30;100.00
15634;BME280;14654;48.898;8.308;2022-09-01T06:18:33;100416.56;;;18.38;100.00
15634;BME280;14654;48.898;8.308;2022-09-01T06:20:58;100418.28;;;19.46;100.00
15634;BME280;14654;48.898;8.308;2022-09-01T06:23:24;100424.19;;;20.29;100.00
15634;BME280;14654;48.898;8.308;2022-09-01T06:25:49;100422.75;;;20.78;100.00
15634;BME280;14654;48.898;8.308;2022-09-01T06:28:17;100414.47;;;21.03;100.00
15634;BME280;14654;48.898;8.308;2022-09-01T06:30:46;100419.19;;;21.14;100.00
15634;BME280;14654;48.898;8.308;2022-09-01T06:33:13;100427.31;;;21.27;100.00
15634;BME280;14654;48.898;8.308;2022-09-01T06:35:40;100425.75;;;21.40;100.00
15634;BME280;14654;48.898;8.308;2022-09-01T06:38:07;100418.22;;;21.68;99.80
15634;BME280;14654;48.898;8.308;2022-09-01T06:40:34;100427.84;;;22.01;98.36
15634;BME280;14654;48.898;8.308;2022-09-01T06:43:00;100437.38;;;22.19;97.03
15634;BME280;14654;48.898;8.308;2022-09-01T06:45:33;100429.31;;;22.55;96.74
15634;BME280;14654;48.898;8.308;2022-09-01T06:47:59;100428.59;;;22.67;95.21
15634;BME280;14654;48.898;8.308;2022-09-01T06:50:24;100430.75;;;22.91;94.83
15634;BME280;14654;48.898;8.308;2022-09-01T06:52:52;100429.97;;;23.19;94.52
15634;BME280;14654;48.898;8.308;2022-09-01T06:55:25;100433.13;;;23.26;91.51
15634;BME280;14654;48.898;8.308;2022-09-01T06:57:51;100434.81;;;23.41;91.70
15634;BME280;14654;48.898;8.308;2022-09-01T07:00:19;100437.75;;;23.51;90.64
15634;BME280;14654;48.898;8.308;2022-09-01T07:02:52;100440.13;;;23.70;91.20
15634;BME280;14654;48.898;8.308;2022-09-01T07:05:19;100436.16;;;23.92;90.69
15634;BME280;14654;48.898;8.308;2022-09-01T07:07:50;100439.84;;;24.04;90.28
15634;BME280;14654;48.898;8.308;2022-09-01T07:10:20;100438.63;;;24.10;90.35
15634;BME280;14654;48.898;8.308;2022-09-01T07:12:48;100441.34;;;24.08;90.00
15634;BME280;14654;48.898;8.308;2022-09-01T07:15:14;100441.53;;;24.05;89.46
15634;BME280;14654;48.898;8.308;2022-09-01T07:17:50;100450.81;;;23.98;89.83
15634;BME280;14654;48.898;8.308;2022-09-01T07:20:24;100449.38;;;23.92;89.93
15634;BME280;14654;48.898;8.308;2022-09-01T07:22:54;100455.13;;;23.70;89.30
15634;BME280;14654;48.898;8.308;2022-09-01T07:25:20;100452.66;;;23.07;89.38
15634;BME280;14654;48.898;8.308;2022-09-01T07:27:45;100445.84;;;22.89;90.95
15634;BME280;14654;48.898;8.308;2022-09-01T07:30:16;100452.44;;;22.49;91.62
15634;BME280;14654;48.898;8.308;2022-09-01T07:32:43;100452.50;;;22.32;93.19
15634;BME280;14654;48.898;8.308;2022-09-01T07:35:10;100451.75;;;22.30;93.73
15634;BME280;14654;48.898;8.308;2022-09-01T07:37:36;100459.13;;;22.07;94.28
15634;BME280;14654;48.898;8.308;2022-09-01T07:40:04;100450.22;;;21.60;95.67
15634;BME280;14654;48.898;8.308;2022-09-01T07:42:31;100452.09;;;21.56;96.54
15634;BME280;14654;48.898;8.308;2022-09-01T07:44:56;100460.88;;;21.57;97.62
15634;BME280;14654;48.898;8.308;2022-09-01T07:47:22;100452.84;;;21.42;98.22
15634;BME280;14654;48.898;8.308;2022-09-01T07:49:48;100458.25;;;21.39;98.83
15634;BME280;14654;48.898;8.308;2022-09-01T07:52:13;100451.41;;;21.19;99.98
15634;BME280;14654;48.898;8.308;2022-09-01T07:54:38;100457.91;;;20.94;100.00
15634;BME280;14654;48.898;8.308;2022-09-01T07:57:04;100454.94;;;20.83;100.00
15634;BME280;14654;48.898;8.308;2022-09-01T07:59:30;100462.38;;;20.73;100.00
15634;BME280;14654;48.898;8.308;2022-09-01T08:01:57;100457.13;;;20.73;100.00
15634;BME280;14654;48.898;8.308;2022-09-01T08:04:23;100457.72;;;20.61;100.00
15634;BME280;14654;48.898;8.308;2022-09-01T08:06:48;100466.25;;;20.66;100.00
15634;BME280;14654;48.898;8.308;2022-09-01T08:09:14;100461.28;;;20.60;100.00
15634;BME280;14654;48.898;8.308;2022-09-01T08:11:39;100468.00;;;20.48;100.00
15634;BME280;14654;48.898;8.308;2022-09-01T08:14:05;100470.03;;;20.60;100.00
15634;BME280;14654;48.898;8.308;2022-09-01T08:16:31;100476.44;;;20.54;100.00
15634;BME280;14654;48.898;8.308;2022-09-01T08:18:57;100469.28;;;20.39;100.00
15634;BME280;14654;48.898;8.308;2022-09-01T08:21:24;100468.56;;;20.35;100.00
15634;BME280;14654;48.898;8.308;2022-09-01T08:23:51;100478.38;;;20.32;100.00
15634;BME280;14654;48.898;8.308;2022-09-01T08:26:19;100485.19;;;20.36;100.00
15634;BME280;14654;48.898;8.308;2022-09-01T08:28:45;100481.19;;;20.46;100.00
15634;BME280;14654;48.898;8.308;2022-09-01T08:31:13;100472.69;;;20.41;100.00
15634;BME280;14654;48.898;8.308;2022-09-01T08:33:40;100474.97;;;20.49;100.00
15634;BME280;14654;48.898;8.308;2022-09-01T08:36:11;100468.78;;;20.67;100.00
15634;BME280;14654;48.898;8.308;2022-09-01T08:38:37;100469.66;;;20.68;100.00
15634;BME280;14654;48.898;8.308;2022-09-01T08:41:11;100482.25;;;20.61;100.00
15634;BME280;14654;48.898;8.308;2022-09-01T08:46:31;100480.97;;;20.51;100.00
15634;BME280;14654;48.898;8.308;2022-09-01T08:49:03;100473.66;;;20.38;100.00
15634;BME280;14654;48.898;8.308;2022-09-01T08:51:39;100481.84;;;20.51;100.00
15634;BME280;14654;48.898;8.308;2022-09-01T08:54:34;100471.97;;;20.56;100.00
15634;BME280;14654;48.898;8.308;2022-09-01T08:57:05;100466.81;;;20.73;100.00
15634;BME280;14654;48.898;8.308;2022-09-01T08:59:32;100468.50;;;20.74;100.00
15634;BME280;14654;48.898;8.308;2022-09-01T09:04:56;100470.88;;;21.15;100.00
15634;BME280;14654;48.898;8.308;2022-09-01T09:07:31;100475.63;;;21.08;100.00
15634;BME280;14654;48.898;8.308;2022-09-01T09:10:20;100467.66;;;21.10;100.00
15634;BME280;14654;48.898;8.308;2022-09-01T09:13:11;100471.44;;;21.22;100.00
15634;BME280;14654;48.898;8.308;2022-09-01T09:15:46;100467.44;;;21.32;99.92
15634;BME280;14654;48.898;8.308;2022-09-01T09:18:34;100457.88;;;21.65;98.44
15634;BME280;14654;48.898;8.308;2022-09-01T09:21:13;100469.81;;;21.88;96.60
15634;BME280;14654;48.898;8.308;2022-09-01T09:23:44;100467.28;;;22.02;96.30
15634;BME280;14654;48.898;8.308;2022-09-01T09:26:10;100471.88;;;21.99;94.49
15634;BME280;14654;48.898;8.308;2022-09-01T09:28:36;100462.38;;;22.12;94.56
15634;BME280;14654;48.898;8.308;2022-09-01T09:31:38;100469.00;;;22.19;94.51
15634;BME280;14654;48.898;8.308;2022-09-01T09:34:35;100466.34;;;22.19;92.19
15634;BME280;14654;48.898;8.308;2022-09-01T09:39:43;100465.19;;;22.41;92.09
15634;BME280;14654;48.898;8.308;2022-09-01T09:42:11;100457.88;;;22.46;91.89
15634;BME280;14654;48.898;8.308;2022-09-01T09:44:43;100470.72;;;22.52;90.17
15634;BME280;14654;48.898;8.308;2022-09-01T09:47:12;100460.94;;;22.55;90.59
15634;BME280;14654;48.898;8.308;2022-09-01T09:52:41;100456.47;;;22.87;88.66
15634;BME280;14654;48.898;8.308;2022-09-01T09:55:26;100451.94;;;22.89;87.59
15634;BME280;14654;48.898;8.308;2022-09-01T09:57:57;100445.84;;;22.73;86.46
15634;BME280;14654;48.898;8.308;2022-09-01T10:00:31;100449.44;;;22.39;87.84
15634;BME280;14654;48.898;8.308;2022-09-01T10:03:01;100448.41;;;22.26;87.89
15634;BME280;14654;48.898;8.308;2022-09-01T10:05:34;100447.59;;;22.58;88.07
15634;BME280;14654;48.898;8.308;2022-09-01T10:08:00;100451.41;;;22.68;87.29
15634;BME280;14654;48.898;8.308;2022-09-01T10:10:47;100458.13;;;22.42;87.29
15634;BME280;14654;48.898;8.308;2022-09-01T10:13:19;100443.47;;;22.36;88.32
15634;BME280;14654;48.898;8.308;2022-09-01T10:15:53;100455.34;;;22.61;88.25
15634;BME280;14654;48.898;8.308;2022-09-01T10:18:28;100454.22;;;22.65;86.52
15634;BME280;14654;48.898;8.308;2022-09-01T10:21:02;100448.81;;;22.82;85.21
15634;BME280;14654;48.898;8.308;2022-09-01T10:23:29;100454.63;;;23.04;85.12
15634;BME280;14654;48.898;8.308;2022-09-01T10:26:02;100444.78;;;23.22;85.20
15634;BME280;14654;48.898;8.308;2022-09-01T10:28:31;100447.75;;;23.46;83.77
15634;BME280;14654;48.898;8.308;2022-09-01T10:30:57;100451.72;;;23.82;81.88
15634;BME280;14654;48.898;8.308;2022-09-01T10:33:24;100446.25;;;23.85;80.81
15634;BME280;14654;48.898;8.308;2022-09-01T10:35:51;100446.91;;;24.03;80.96
15634;BME280;14654;48.898;8.308;2022-09-01T10:38:27;100447.16;;;24.28;81.69
15634;BME280;14654;48.898;8.308;2022-09-01T10:40:55;100447.94;;;24.15;79.89
15634;BME280;14654;48.898;8.308;2022-09-01T10:43:45;100452.59;;;24.12;80.07
15634;BME280;14654;48.898;8.308;2022-09-01T10:48:45;100440.88;;;23.58;79.60
15634;BME280;14654;48.898;8.308;2022-09-01T10:59:04;100437.59;;;23.54;79.56
15634;BME280;14654;48.898;8.308;2022-09-01T11:04:05;100443.03;;;23.37;79.12
15634;BME280;14654;48.898;8.308;2022-09-01T11:09:39;100439.00;;;23.46;79.69
15634;BME280;14654;48.898;8.308;2022-09-01T11:27:10;100424.16;;;24.15;77.71
15634;BME280;14654;48.898;8.308;2022-09-01T11:29:54;100420.03;;;24.39;78.31
15634;BME280;14654;48.898;8.308;2022-09-01T11:32:24;100414.06;;;24.62;77.91
15634;BME280;14654;48.898;8.308;2022-09-01T11:34:51;100415.88;;;24.62;77.53
15634;BME280;14654;48.898;8.308;2022-09-01T11:37:21;100420.69;;;24.70;77.49
15634;BME280;14654;48.898;8.308;2022-09-01T11:39:50;100415.06;;;24.47;76.39
15634;BME280;14654;48.898;8.308;2022-09-01T11:42:30;100413.66;;;24.69;76.08
15634;BME280;14654;48.898;8.308;2022-09-01T11:47:34;100404.84;;;24.68;76.29
15634;BME280;14654;48.898;8.308;2022-09-01T11:50:29;100406.84;;;25.05;76.33
15634;BME280;14654;48.898;8.308;2022-09-01T11:53:03;100401.09;;;24.72;75.05
15634;BME280;14654;48.898;8.308;2022-09-01T11:57:58;100393.84;;;25.15;75.71
15634;BME280;14654;48.898;8.308;2022-09-01T12:00:28;100392.41;;;24.70;76.13
15634;BME280;14654;48.898;8.308;2022-09-01T12:02:53;100399.34;;;24.31;77.97
15634;BME280;14654;48.898;8.308;2022-09-01T12:05:36;100391.31;;;24.32;76.79
15634;BME280;14654;48.898;8.308;2022-09-01T12:08:11;100393.47;;;24.40;76.75
15634;BME280;14654;48.898;8.308;2022-09-01T12:10:38;100386.59;;;24.38;76.17
15634;BME280;14654;48.898;8.308;2022-09-01T12:13:05;100384.63;;;24.54;75.78
15634;BME280;14654;48.898;8.308;2022-09-01T12:15:32;100379.97;;;24.58;75.19
15634;BME280;14654;48.898;8.308;2022-09-01T12:18:23;100383.69;;;24.68;75.44
15634;BME280;14654;48.898;8.308;2022-09-01T12:20:56;100392.75;;;24.51;75.02
15634;BME280;14654;48.898;8.308;2022-09-01T12:23:31;100369.38;;;24.58;74.93
15634;BME280;14654;48.898;8.308;2022-09-01T12:26:09;100376.59;;;24.28;74.26
15634;BME280;14654;48.898;8.308;2022-09-01T12:28:36;100388.13;;;24.00;73.81
15634;BME280;14654;48.898;8.308;2022-09-01T12:31:07;100384.59;;;23.85;73.40
15634;BME280;14654;48.898;8.308;2022-09-01T12:33:36;100378.00;;;23.92;74.75
15634;BME280;14654;48.898;8.308;2022-09-01T12:38:47;100381.44;;;23.65;76.61
15634;BME280;14654;48.898;8.308;2022-09-01T12:41:23;100375.13;;;23.68;76.93
15634;BME280;14654;48.898;8.308;2022-09-01T12:43:49;100376.91;;;23.67;78.00
15634;BME280;14654;48.898;8.308;2022-09-01T12:46:42;100377.56;;;23.71;78.28
15634;BME280;14654;48.898;8.308;2022-09-01T12:49:21;100364.03;;;24.04;77.96
15634;BME280;14654;48.898;8.308;2022-09-01T12:51:47;100360.28;;;24.22;75.86
15634;BME280;14654;48.898;8.308;2022-09-01T12:54:13;100358.13;;;24.41;74.82
15634;BME280;14654;48.898;8.308;2022-09-01T12:56:39;100360.94;;;24.65;74.24
15634;BME280;14654;48.898;8.308;2022-09-01T12:59:09;100354.94;;;24.89;74.76
15634;BME280;14654;48.898;8.308;2022-09-01T13:01:37;100356.47;;;25.06;73.93
15634;BME280;14654;48.898;8.308;2022-09-01T13:06:48;100353.38;;;25.25;72.83
15634;BME280;14654;48.898;8.308;2022-09-01T13:09:14;100349.97;;;25.36;73.34
15634;BME280;14654;48.898;8.308;2022-09-01T13:11:40;100350.59;;;25.27;73.79
15634;BME280;14654;48.898;8.308;2022-09-01T13:14:07;100347.44;;;25.09;74.02
15634;BME280;14654;48.898;8.308;2022-09-01T13:16:33;100352.63;;;24.85;74.25
15634;BME280;14654;48.898;8.308;2022-09-01T13:18:59;100345.63;;;24.84;74.32
15634;BME280;14654;48.898;8.308;2022-09-01T13:21:25;100339.91;;;24.77;74.01
15634;BME280;14654;48.898;8.308;2022-09-01T13:23:51;100340.47;;;24.55;74.15
15634;BME280;14654;48.898;8.308;2022-09-01T13:26:17;100350.09;;;24.43;74.27
15634;BME280;14654;48.898;8.308;2022-09-01T13:28:42;100338.97;;;24.50;75.70
15634;BME280;14654;48.898;8.308;2022-09-01T13:31:09;100338.88;;;24.39;74.47
15634;BME280;14654;48.898;8.308;2022-09-01T13:33:34;100329.03;;;24.41;74.86
15634;BME280;14654;48.898;8.308;2022-09-01T13:36:02;100330.72;;;24.42;74.36
15634;BME280;14654;48.898;8.308;2022-09-01T13:38:27;100322.50;;;24.60;74.32
15634;BME280;14654;48.898;8.308;2022-09-01T13:40:53;100327.78;;;24.47;74.26
15634;BME280;14654;48.898;8.308;2022-09-01T13:43:20;100328.09;;;24.42;75.16
15634;BME280;14654;48.898;8.308;2022-09-01T13:45:47;100329.38;;;24.49;75.99
15634;BME280;14654;48.898;8.308;2022-09-01T13:48:13;100323.19;;;24.36;74.83
15634;BME280;14654;48.898;8.308;2022-09-01T13:50:39;100332.81;;;24.37;75.39